sensor_id;sensor_type;location;lat;lon;timestamp;temperature;humidity
16995;DHT22;8614;48.522;9.206;2023-06-26T00:01:05;18.70;99.90
16995;DHT22;8614;48.522;9.206;2023-06-26T00:03:32;18.60;99.90
16995;DHT22;8614;48.522;9.206;2023-06-26T00:05:59;18.60;99.90
16995;DHT22;8614;48.522;9.206;2023-06-26T00:08:27;18.60;99.90
16995;DHT22;8614;48.522;9.206;2023-06-26T00:10:54;18.50;99.90
16995;DHT22;8614;48.522;9.206;2023-06-26T00:13:24;18.50;99.90
16995;DHT22;8614;48.522;9.206;2023-06-26T00:15:51;18.40;99.90
16995;DHT22;8614;48.522;9.206;2023-06-26T00:18:18;18.40;99.90
16995;DHT22;8614;48.522;9.206;2023-06-26T00:20:44;18.40;99.90
16995;DHT22;8614;48.522;9.206;2023-06-26T00:23:11;18.40;99.90
16995;DHT22;8614;48.522;9.206;2023-06-26T00:25:42;18.30;99.90
16995;DHT22;8614;48.522;9.206;2023-06-26T00:28:09;18.30;99.90
16995;DHT22;8614;48.522;9.206;2023-06-26T00:30:38;18.30;99.90
16995;DHT22;8614;48.522;9.206;2023-06-26T00:33:05;18.30;99.90
16995;DHT22;8614;48.522;9.206;2023-06-26T00:35:32;18.20;99.90
16995;DHT22;8614;48.522;9.206;2023-06-26T00:37:59;18.20;99.90
16995;DHT22;8614;48.522;9.206;2023-06-26T00:40:25;18.20;99.90
16995;DHT22;8614;48.522;9.206;2023-06-26T00:42:53;18.20;99.90
16995;DHT22;8614;48.522;9.206;2023-06-26T00:45:20;18.00;99.90
16995;DHT22;8614;48.522;9.206;2023-06-26T00:47:49;18.00;99.90
16995;DHT22;8614;48.522;9.206;2023-06-26T00:50:15;18.00;99.90
16995;DHT22;8614;48.522;9.206;2023-06-26T00:52:43;18.00;99.90
16995;DHT22;8614;48.522;9.206;2023-06-26T00:55:10;18.00;99.90
16995;DHT22;8614;48.522;9.206;2023-06-26T00:57:37;18.00;99.90
16995;DHT22;8614;48.522;9.206;2023-06-26T01:00:05;18.00;99.90
16995;DHT22;8614;48.522;9.206;2023-06-26T01:02:32;18.00;99.90
16995;DHT22;8614;48.522;9.206;2023-06-26T01:05:01;18.00;99.90
16995;DHT22;8614;48.522;9.206;2023-06-26T01:07:35;17.90;99.90
16995;DHT22;8614;48.522;9.206;2023-06-26T01:10:03;17.90;99.90
16995;DHT22;8614;48.522;9.206;2023-06-26T01:12:31;18.00;99.90
16995;DHT22;8614;48.522;9.206;2023-06-26T01:14:59;17.90;99.90
16995;DHT22;8614;48.522;9.206;2023-06-26T01:17:27;17.90;99.90
16995;DHT22;8614;48.522;9.206;2023-06-26T01:19:57;17.90;99.90
16995;DHT22;8614;48.522;9.206;2023-06-26T01:22:30;17.90;99.90
16995;DHT22;8614;48.522;9.206;2023-06-26T01:25:07;17.90;99.90
16995;DHT22;8614;48.522;9.206;2023-06-26T01:27:39;17.90;99.90
16995;DHT22;8614;48.522;9.206;2023-06-26T01:30:08;17.90;99.90
16995;DHT22;8614;48.522;9.206;2023-06-26T01:32:36;17.90;99.90
16995;DHT22;8614;48.522;9.206;2023-06-26T01:35:06;17.80;99.90
16995;DHT22;8614;48.522;9.206;2023-06-26T01:37:33;17.80;99.90
16995;DHT22;8614;48.522;9.206;2023-06-26T01:40:03;17.80;99.90
16995;DHT22;8614;48.522;9.206;2023-06-26T01:42:31;17.80;99.90
16995;DHT22;8614;48.522;9.206;2023-06-26T01:45:02;17.80;99.90
16995;DHT22;8614;48.522;9.206;2023-06-26T01:47:32;17.80;99.90
16995;DHT22;8614;48.522;9.206;2023-06-26T01:50:06;17.90;99.90
16995;DHT22;8614;48.522;9.206;2023-06-26T01:52:40;17.90;99.90
16995;DHT22;8614;48.522;9.206;2023-06-26T01:55:15;17.90;99.90
16995;DHT22;8614;48.522;9.206;2023-06-26T01:57:46;17.90;99.90
16995;DHT22;8614;48.522;9.206;2023-06-26T02:00:16;17.90;99.90
16995;DHT22;8614;48.522;9.206;2023-06-26T02:02:44;17.90;99.90
16995;DHT22;8614;48.522;9.206;2023-06-26T02:05:13;17.90;99.90
16995;DHT22;8614;48.522;9.206;2023-06-26T02:07:40;17.90;99.90
16995;DHT22;8614;48.522;9.206;2023-06-26T02:10:08;17.90;99.90
16995;DHT22;8614;48.522;9.206;2023-06-26T02:12:35;17.90;99.90
16995;DHT22;8614;48.522;9.206;2023-06-26T02:15:02;17.90;99.90
16995;DHT22;8614;48.522;9.206;2023-06-26T02:17:31;17.90;99.90
16995;DHT22;8614;48.522;9.206;2023-06-26T02:19:57;17.90;99.90
16995;DHT22;8614;48.522;9.206;2023-06-26T02:22:24;17.80;99.90
16995;DHT22;8614;48.522;9.206;2023-06-26T02:24:51;17.80;99.90
16995;DHT22;8614;48.522;9.206;2023-06-26T02:27:18;17.80;99.90
16995;DHT22;8614;48.522;9.206;2023-06-26T02:29:45;17.80;99.90
16995;DHT22;8614;48.522;9.206;2023-06-26T02:32:12;17.80;99.90
16995;DHT22;8614;48.522;9.206;2023-06-26T02:34:40;17.80;99.90
16995;DHT22;8614;48.522;9.206;2023-06-26T02:37:07;17.70;99.90
16995;DHT22;8614;48.522;9.206;2023-06-26T02:39:34;17.70;99.90
16995;DHT22;8614;48.522;9.206;2023-06-26T02:42:01;17.70;99.90
16995;DHT22;8614;48.522;9.206;2023-06-26T02:44:28;17.70;99.90
16995;DHT22;8614;48.522;9.206;2023-06-26T02:46:55;17.70;99.90
16995;DHT22;8614;48.522;9.206;2023-06-26T02:49:21;17.60;99.90
16995;DHT22;8614;48.522;9.206;2023-06-26T02:51:50;17.60;99.90
16995;DHT22;8614;48.522;9.206;2023-06-26T02:54:25;17.50;99.90
16995;DHT22;8614;48.522;9.206;2023-06-26T02:56:55;17.50;99.90
16995;DHT22;8614;48.522;9.206;2023-06-26T02:59:26;17.40;99.90
16995;DHT22;8614;48.522;9.206;2023-06-26T03:01:54;17.40;99.90
16995;DHT22;8614;48.522;9.206;2023-06-26T03:04:28;17.40;99.90
16995;DHT22;8614;48.522;9.206;2023-06-26T03:07:04;17.40;99.90
16995;DHT22;8614;48.522;9.206;2023-06-26T03:09:31;17.40;99.90
16995;DHT22;8614;48.522;9.206;2023-06-26T03:11:58;17.40;99.90
16995;DHT22;8614;48.522;9.206;2023-06-26T03:14:25;17.40;99.90
16995;DHT22;8614;48.522;9.206;2023-06-26T03:16:52;17.30;99.90
16995;DHT22;8614;48.522;9.206;2023-06-26T03:19:24;17.30;99.90
16995;DHT22;8614;48.522;9.206;2023-06-26T03:22:15;17.30;99.90
16995;DHT22;8614;48.522;9.206;2023-06-26T03:24:44;17.20;99.90
16995;DHT22;8614;48.522;9.206;2023-06-26T03:27:11;17.20;99.90
16995;DHT22;8614;48.522;9.206;2023-06-26T03:29:38;17.20;99.90
16995;DHT22;8614;48.522;9.206;2023-06-26T03:32:06;17.20;99.90
16995;DHT22;8614;48.522;9.206;2023-06-26T03:34:34;17.20;99.90
16995;DHT22;8614;48.522;9.206;2023-06-26T03:37:01;17.10;99.90
16995;DHT22;8614;48.522;9.206;2023-06-26T03:39:30;17.10;99.90
16995;DHT22;8614;48.522;9.206;2023-06-26T03:41:56;17.20;99.90
16995;DHT22;8614;48.522;9.206;2023-06-26T03:44:26;17.10;99.90
16995;DHT22;8614;48.522;9.206;2023-06-26T03:46:53;17.10;99.90
16995;DHT22;8614;48.522;9.206;2023-06-26T03:49:20;17.10;99.90
16995;DHT22;8614;48.522;9.206;2023-06-26T03:51:47;17.10;99.90
16995;DHT22;8614;48.522;9.206;2023-06-26T03:54:14;17.10;99.90
16995;DHT22;8614;48.522;9.206;2023-06-26T03:56:43;17.10;99.90
16995;DHT22;8614;48.522;9.206;2023-06-26T03:59:10;17.10;99.90
16995;DHT22;8614;48.522;9.206;2023-06-26T04:01:39;17.10;99.90
16995;DHT22;8614;48.522;9.206;2023-06-26T04:04:06;17.10;99.90
16995;DHT22;8614;48.522;9.206;2023-06-26T04:06:33;17.10;99.90
16995;DHT22;8614;48.522;9.206;2023-06-26T04:09:00;17.10;99.90
16995;DHT22;8614;48.522;9.206;2023-06-26T04:11:28;17.10;99.90
16995;DHT22;8614;48.522;9.206;2023-06-26T04:13:56;17.20;99.90
16995;DHT22;8614;48.522;9.206;2023-06-26T04:16:23;17.20;99.90
16995;DHT22;8614;48.522;9.206;2023-06-26T04:18:51;17.30;99.90
16995;DHT22;8614;48.522;9.206;2023-06-26T04:21:18;17.40;99.90
16995;DHT22;8614;48.522;9.206;2023-06-26T04:23:45;17.40;99.90
16995;DHT22;8614;48.522;9.206;2023-06-26T04:26:13;17.50;99.90
16995;DHT22;8614;48.522;9.206;2023-06-26T04:28:40;17.60;99.90
16995;DHT22;8614;48.522;9.206;2023-06-26T04:31:09;17.70;99.90
16995;DHT22;8614;48.522;9.206;2023-06-26T04:33:36;17.80;99.90
16995;DHT22;8614;48.522;9.206;2023-06-26T04:36:03;17.90;99.90
16995;DHT22;8614;48.522;9.206;2023-06-26T04:38:30;18.00;99.90
16995;DHT22;8614;48.522;9.206;2023-06-26T04:40:57;18.20;99.90
16995;DHT22;8614;48.522;9.206;2023-06-26T04:43:24;18.30;99.90
16995;DHT22;8614;48.522;9.206;2023-06-26T04:45:51;18.50;99.90
16995;DHT22;8614;48.522;9.206;2023-06-26T04:48:19;18.70;99.90
16995;DHT22;8614;48.522;9.206;2023-06-26T04:50:47;18.90;99.90
16995;DHT22;8614;48.522;9.206;2023-06-26T04:53:19;19.10;99.90
16995;DHT22;8614;48.522;9.206;2023-06-26T04:55:46;19.50;99.90
16995;DHT22;8614;48.522;9.206;2023-06-26T04:58:13;19.90;99.90
16995;DHT22;8614;48.522;9.206;2023-06-26T05:00:40;20.20;99.90
16995;DHT22;8614;48.522;9.206;2023-06-26T05:03:08;20.30;99.90
16995;DHT22;8614;48.522;9.206;2023-06-26T05:05:36;20.40;99.90
16995;DHT22;8614;48.522;9.206;2023-06-26T05:08:14;20.50;99.90
16995;DHT22;8614;48.522;9.206;2023-06-26T05:10:41;20.60;99.90
16995;DHT22;8614;48.522;9.206;2023-06-26T05:13:08;20.80;99.90
16995;DHT22;8614;48.522;9.206;2023-06-26T05:15:35;21.00;99.90
16995;DHT22;8614;48.522;9.206;2023-06-26T05:18:02;21.20;99.90
16995;DHT22;8614;48.522;9.206;2023-06-26T05:20:28;21.60;99.90
16995;DHT22;8614;48.522;9.206;2023-06-26T05:22:57;21.80;99.90
16995;DHT22;8614;48.522;9.206;2023-06-26T05:25:25;21.90;99.90
16995;DHT22;8614;48.522;9.206;2023-06-26T05:27:55;22.00;99.90
16995;DHT22;8614;48.522;9.206;2023-06-26T05:30:22;21.90;99.90
16995;DHT22;8614;48.522;9.206;2023-06-26T05:32:51;21.90;99.90
16995;DHT22;8614;48.522;9.206;2023-06-26T05:35:20;21.80;99.90
16995;DHT22;8614;48.522;9.206;2023-06-26T05:37:48;21.90;99.90
16995;DHT22;8614;48.522;9.206;2023-06-26T05:40:19;22.10;99.90
16995;DHT22;8614;48.522;9.206;2023-06-26T05:42:46;22.40;99.90
16995;DHT22;8614;48.522;9.206;2023-06-26T05:45:13;22.70;99.90
16995;DHT22;8614;48.522;9.206;2023-06-26T05:47:40;23.50;99.90
16995;DHT22;8614;48.522;9.206;2023-06-26T05:50:08;24.20;99.90
16995;DHT22;8614;48.522;9.206;2023-06-26T05:52:36;24.90;99.90
16995;DHT22;8614;48.522;9.206;2023-06-26T05:55:05;25.50;99.90
16995;DHT22;8614;48.522;9.206;2023-06-26T05:57:34;25.80;99.90
16995;DHT22;8614;48.522;9.206;2023-06-26T06:00:03;26.20;99.90
16995;DHT22;8614;48.522;9.206;2023-06-26T06:02:39;26.70;99.90
16995;DHT22;8614;48.522;9.206;2023-06-26T06:05:07;27.10;99.90
16995;DHT22;8614;48.522;9.206;2023-06-26T06:07:34;27.40;99.90
16995;DHT22;8614;48.522;9.206;2023-06-26T06:10:01;27.50;99.90
16995;DHT22;8614;48.522;9.206;2023-06-26T06:12:28;27.80;99.90
16995;DHT22;8614;48.522;9.206;2023-06-26T06:14:57;28.00;99.90
16995;DHT22;8614;48.522;9.206;2023-06-26T06:17:23;28.10;99.90
16995;DHT22;8614;48.522;9.206;2023-06-26T06:19:50;28.10;99.90
16995;DHT22;8614;48.522;9.206;2023-06-26T06:22:17;28.50;99.90
16995;DHT22;8614;48.522;9.206;2023-06-26T06:24:44;28.70;99.90
16995;DHT22;8614;48.522;9.206;2023-06-26T06:27:11;28.80;99.90
16995;DHT22;8614;48.522;9.206;2023-06-26T06:29:38;29.20;99.90
16995;DHT22;8614;48.522;9.206;2023-06-26T06:32:07;29.30;99.90
16995;DHT22;8614;48.522;9.206;2023-06-26T06:34:35;29.50;99.90
16995;DHT22;8614;48.522;9.206;2023-06-26T06:37:02;29.50;99.90
16995;DHT22;8614;48.522;9.206;2023-06-26T06:39:29;29.60;99.90
16995;DHT22;8614;48.522;9.206;2023-06-26T06:41:56;29.80;99.90
16995;DHT22;8614;48.522;9.206;2023-06-26T06:44:24;29.90;99.90
16995;DHT22;8614;48.522;9.206;2023-06-26T06:46:51;30.00;99.90
16995;DHT22;8614;48.522;9.206;2023-06-26T06:49:19;30.10;99.90
16995;DHT22;8614;48.522;9.206;2023-06-26T06:51:46;30.30;99.90
16995;DHT22;8614;48.522;9.206;2023-06-26T06:54:15;30.50;99.90
16995;DHT22;8614;48.522;9.206;2023-06-26T06:56:42;30.60;99.90
16995;DHT22;8614;48.522;9.206;2023-06-26T06:59:09;30.90;99.60
16995;DHT22;8614;48.522;9.206;2023-06-26T07:01:36;31.10;99.60
16995;DHT22;8614;48.522;9.206;2023-06-26T07:04:03;31.20;98.70
16995;DHT22;8614;48.522;9.206;2023-06-26T07:06:31;31.20;98.50
16995;DHT22;8614;48.522;9.206;2023-06-26T07:08:58;31.30;98.30
16995;DHT22;8614;48.522;9.206;2023-06-26T07:11:25;31.50;98.30
16995;DHT22;8614;48.522;9.206;2023-06-26T07:13:52;31.70;97.70
16995;DHT22;8614;48.522;9.206;2023-06-26T07:16:19;31.70;97.50
16995;DHT22;8614;48.522;9.206;2023-06-26T07:18:46;32.00;97.70
16995;DHT22;8614;48.522;9.206;2023-06-26T07:21:12;32.30;97.60
16995;DHT22;8614;48.522;9.206;2023-06-26T07:23:40;32.50;96.10
16995;DHT22;8614;48.522;9.206;2023-06-26T07:26:07;32.80;96.60
16995;DHT22;8614;48.522;9.206;2023-06-26T07:28:34;32.90;95.90
16995;DHT22;8614;48.522;9.206;2023-06-26T07:31:01;33.00;96.00
16995;DHT22;8614;48.522;9.206;2023-06-26T07:33:27;33.00;95.10
16995;DHT22;8614;48.522;9.206;2023-06-26T07:35:54;33.10;95.40
16995;DHT22;8614;48.522;9.206;2023-06-26T07:38:21;33.10;95.50
16995;DHT22;8614;48.522;9.206;2023-06-26T07:40:49;33.40;95.10
16995;DHT22;8614;48.522;9.206;2023-06-26T07:43:16;33.60;95.20
16995;DHT22;8614;48.522;9.206;2023-06-26T07:45:43;33.80;94.40
16995;DHT22;8614;48.522;9.206;2023-06-26T07:48:10;33.80;93.50
16995;DHT22;8614;48.522;9.206;2023-06-26T07:50:37;33.90;92.80
16995;DHT22;8614;48.522;9.206;2023-06-26T07:53:04;33.90;93.60
16995;DHT22;8614;48.522;9.206;2023-06-26T07:55:31;33.90;92.60
16995;DHT22;8614;48.522;9.206;2023-06-26T07:57:59;33.90;92.00
16995;DHT22;8614;48.522;9.206;2023-06-26T08:00:27;34.00;91.60
16995;DHT22;8614;48.522;9.206;2023-06-26T08:02:53;34.00;92.20
16995;DHT22;8614;48.522;9.206;2023-06-26T08:05:26;34.10;91.60
16995;DHT22;8614;48.522;9.206;2023-06-26T08:07:53;34.10;91.60
16995;DHT22;8614;48.522;9.206;2023-06-26T08:10:20;34.10;91.20
16995;DHT22;8614;48.522;9.206;2023-06-26T08:12:47;34.00;91.30
16995;DHT22;8614;48.522;9.206;2023-06-26T08:15:17;34.10;91.50
16995;DHT22;8614;48.522;9.206;2023-06-26T08:17:44;34.20;91.30
16995;DHT22;8614;48.522;9.206;2023-06-26T08:20:11;34.40;90.60
16995;DHT22;8614;48.522;9.206;2023-06-26T08:22:39;34.40;90.70
16995;DHT22;8614;48.522;9.206;2023-06-26T08:25:06;34.50;90.90
16995;DHT22;8614;48.522;9.206;2023-06-26T08:27:33;34.60;90.90
16995;DHT22;8614;48.522;9.206;2023-06-26T08:30:00;34.80;90.40
16995;DHT22;8614;48.522;9.206;2023-06-26T08:32:28;34.70;90.20
16995;DHT22;8614;48.522;9.206;2023-06-26T08:34:55;34.80;88.80
16995;DHT22;8614;48.522;9.206;2023-06-26T08:37:21;35.00;88.60
16995;DHT22;8614;48.522;9.206;2023-06-26T08:39:48;35.00;90.30
16995;DHT22;8614;48.522;9.206;2023-06-26T08:42:15;35.00;88.70
16995;DHT22;8614;48.522;9.206;2023-06-26T08:44:42;35.20;87.00
16995;DHT22;8614;48.522;9.206;2023-06-26T08:47:11;35.20;89.80
16995;DHT22;8614;48.522;9.206;2023-06-26T08:49:53;35.20;87.50
16995;DHT22;8614;48.522;9.206;2023-06-26T08:52:23;35.20;87.90
16995;DHT22;8614;48.522;9.206;2023-06-26T08:54:58;35.40;88.20
16995;DHT22;8614;48.522;9.206;2023-06-26T08:57:26;35.60;87.20
16995;DHT22;8614;48.522;9.206;2023-06-26T08:59:53;35.80;88.20
16995;DHT22;8614;48.522;9.206;2023-06-26T09:02:20;36.10;85.00
16995;DHT22;8614;48.522;9.206;2023-06-26T09:04:49;36.00;83.90
16995;DHT22;8614;48.522;9.206;2023-06-26T09:07:16;35.90;84.60
16995;DHT22;8614;48.522;9.206;2023-06-26T09:09:43;36.00;84.40
16995;DHT22;8614;48.522;9.206;2023-06-26T09:12:10;35.80;85.50
16995;DHT22;8614;48.522;9.206;2023-06-26T09:14:37;35.80;85.00
16995;DHT22;8614;48.522;9.206;2023-06-26T09:17:04;36.00;82.70
16995;DHT22;8614;48.522;9.206;2023-06-26T09:19:31;35.70;83.10
16995;DHT22;8614;48.522;9.206;2023-06-26T09:21:59;35.60;83.70
16995;DHT22;8614;48.522;9.206;2023-06-26T09:24:26;35.90;83.90
16995;DHT22;8614;48.522;9.206;2023-06-26T09:26:53;36.00;86.00
16995;DHT22;8614;48.522;9.206;2023-06-26T09:29:21;36.20;83.60
16995;DHT22;8614;48.522;9.206;2023-06-26T09:31:47;36.40;83.00
16995;DHT22;8614;48.522;9.206;2023-06-26T09:34:14;36.30;82.30
16995;DHT22;8614;48.522;9.206;2023-06-26T09:36:41;36.30;81.20
16995;DHT22;8614;48.522;9.206;2023-06-26T09:39:13;36.40;81.60
16995;DHT22;8614;48.522;9.206;2023-06-26T09:41:41;36.60;80.00
16995;DHT22;8614;48.522;9.206;2023-06-26T09:44:13;36.90;79.70
16995;DHT22;8614;48.522;9.206;2023-06-26T09:46:40;36.80;78.10
16995;DHT22;8614;48.522;9.206;2023-06-26T09:49:09;36.90;79.70
16995;DHT22;8614;48.522;9.206;2023-06-26T09:51:37;36.80;79.90
16995;DHT22;8614;48.522;9.206;2023-06-26T09:54:05;36.80;78.30
16995;DHT22;8614;48.522;9.206;2023-06-26T09:56:34;36.80;78.20
16995;DHT22;8614;48.522;9.206;2023-06-26T09:59:02;37.00;77.10
16995;DHT22;8614;48.522;9.206;2023-06-26T10:01:32;37.00;77.00
16995;DHT22;8614;48.522;9.206;2023-06-26T10:03:59;36.90;77.00
16995;DHT22;8614;48.522;9.206;2023-06-26T10:06:28;36.90;77.90
16995;DHT22;8614;48.522;9.206;2023-06-26T10:08:58;36.90;78.40
16995;DHT22;8614;48.522;9.206;2023-06-26T10:11:31;36.90;79.20
16995;DHT22;8614;48.522;9.206;2023-06-26T10:14:03;37.00;79.40
16995;DHT22;8614;48.522;9.206;2023-06-26T10:16:31;37.10;76.00
16995;DHT22;8614;48.522;9.206;2023-06-26T10:19:08;37.10;77.70
16995;DHT22;8614;48.522;9.206;2023-06-26T10:21:39;36.90;76.60
16995;DHT22;8614;48.522;9.206;2023-06-26T10:24:07;37.10;78.40
16995;DHT22;8614;48.522;9.206;2023-06-26T10:26:38;37.30;78.10
16995;DHT22;8614;48.522;9.206;2023-06-26T10:29:06;37.40;76.10
16995;DHT22;8614;48.522;9.206;2023-06-26T10:31:34;37.30;74.00
16995;DHT22;8614;48.522;9.206;2023-06-26T10:34:02;37.00;74.10
16995;DHT22;8614;48.522;9.206;2023-06-26T10:36:30;36.40;74.10
16995;DHT22;8614;48.522;9.206;2023-06-26T10:38:59;35.90;76.70
16995;DHT22;8614;48.522;9.206;2023-06-26T10:41:36;35.60;77.30
16995;DHT22;8614;48.522;9.206;2023-06-26T10:44:09;35.30;76.90
16995;DHT22;8614;48.522;9.206;2023-06-26T10:46:51;35.10;78.10
16995;DHT22;8614;48.522;9.206;2023-06-26T10:49:19;34.60;79.40
16995;DHT22;8614;48.522;9.206;2023-06-26T10:51:46;34.30;78.50
16995;DHT22;8614;48.522;9.206;2023-06-26T10:54:15;34.10;80.80
16995;DHT22;8614;48.522;9.206;2023-06-26T10:56:42;34.00;82.80
16995;DHT22;8614;48.522;9.206;2023-06-26T10:59:19;33.70;81.60
16995;DHT22;8614;48.522;9.206;2023-06-26T11:01:47;33.50;83.40
16995;DHT22;8614;48.522;9.206;2023-06-26T11:04:36;33.70;84.50
16995;DHT22;8614;48.522;9.206;2023-06-26T11:07:16;34.10;84.20
16995;DHT22;8614;48.522;9.206;2023-06-26T11:09:55;34.10;80.90
16995;DHT22;8614;48.522;9.206;2023-06-26T11:12:37;33.80;80.20
16995;DHT22;8614;48.522;9.206;2023-06-26T11:15:09;33.30;83.00
16995;DHT22;8614;48.522;9.206;2023-06-26T11:17:38;32.80;86.50
16995;DHT22;8614;48.522;9.206;2023-06-26T11:20:08;32.60;86.40
16995;DHT22;8614;48.522;9.206;2023-06-26T11:22:37;32.90;87.00
16995;DHT22;8614;48.522;9.206;2023-06-26T11:25:05;33.20;87.90
16995;DHT22;8614;48.522;9.206;2023-06-26T11:27:35;33.50;88.60
16995;DHT22;8614;48.522;9.206;2023-06-26T11:30:05;33.50;86.40
16995;DHT22;8614;48.522;9.206;2023-06-26T11:32:33;33.60;85.80
16995;DHT22;8614;48.522;9.206;2023-06-26T11:35:00;33.60;86.40
16995;DHT22;8614;48.522;9.206;2023-06-26T11:37:27;33.80;86.30
16995;DHT22;8614;48.522;9.206;2023-06-26T11:39:54;33.90;87.10
16995;DHT22;8614;48.522;9.206;2023-06-26T11:42:21;34.00;86.10
16995;DHT22;8614;48.522;9.206;2023-06-26T11:44:50;34.00;87.10
16995;DHT22;8614;48.522;9.206;2023-06-26T11:47:19;33.90;85.90
16995;DHT22;8614;48.522;9.206;2023-06-26T11:49:48;33.70;87.40
16995;DHT22;8614;48.522;9.206;2023-06-26T11:52:15;33.60;88.00
16995;DHT22;8614;48.522;9.206;2023-06-26T11:54:43;33.40;87.30
16995;DHT22;8614;48.522;9.206;2023-06-26T11:57:13;33.40;87.60
16995;DHT22;8614;48.522;9.206;2023-06-26T11:59:41;33.30;87.30
16995;DHT22;8614;48.522;9.206;2023-06-26T12:02:09;33.30;87.40
16995;DHT22;8614;48.522;9.206;2023-06-26T12:04:38;33.30;86.50
16995;DHT22;8614;48.522;9.206;2023-06-26T12:07:08;33.40;86.80
16995;DHT22;8614;48.522;9.206;2023-06-26T12:09:38;33.50;87.80
16995;DHT22;8614;48.522;9.206;2023-06-26T12:12:06;33.40;86.70
16995;DHT22;8614;48.522;9.206;2023-06-26T12:14:34;33.50;86.80
16995;DHT22;8614;48.522;9.206;2023-06-26T12:17:04;33.30;86.40
16995;DHT22;8614;48.522;9.206;2023-06-26T12:19:44;33.40;87.10
16995;DHT22;8614;48.522;9.206;2023-06-26T12:22:14;33.50;86.40
16995;DHT22;8614;48.522;9.206;2023-06-26T12:24:42;33.60;88.00
16995;DHT22;8614;48.522;9.206;2023-06-26T12:27:10;33.50;85.80
16995;DHT22;8614;48.522;9.206;2023-06-26T12:29:39;33.40;85.50
16995;DHT22;8614;48.522;9.206;2023-06-26T12:32:09;33.30;87.10
16995;DHT22;8614;48.522;9.206;2023-06-26T12:34:37;33.00;86.80
16995;DHT22;8614;48.522;9.206;2023-06-26T12:37:05;32.80;87.70
16995;DHT22;8614;48.522;9.206;2023-06-26T12:39:47;32.70;88.10
16995;DHT22;8614;48.522;9.206;2023-06-26T12:42:15;32.60;89.30
16995;DHT22;8614;48.522;9.206;2023-06-26T12:44:42;32.60;89.50
16995;DHT22;8614;48.522;9.206;2023-06-26T12:47:08;32.50;89.00
16995;DHT22;8614;48.522;9.206;2023-06-26T12:49:36;32.40;88.60
16995;DHT22;8614;48.522;9.206;2023-06-26T12:52:05;32.30;90.30
16995;DHT22;8614;48.522;9.206;2023-06-26T12:54:33;32.40;89.80
16995;DHT22;8614;48.522;9.206;2023-06-26T12:57:02;32.20;90.00
16995;DHT22;8614;48.522;9.206;2023-06-26T12:59:29;32.30;90.50
16995;DHT22;8614;48.522;9.206;2023-06-26T13:01:56;32.40;90.20
16995;DHT22;8614;48.522;9.206;2023-06-26T13:04:23;32.40;90.70
16995;DHT22;8614;48.522;9.206;2023-06-26T13:06:50;32.30;90.90
16995;DHT22;8614;48.522;9.206;2023-06-26T13:09:20;32.20;91.00
16995;DHT22;8614;48.522;9.206;2023-06-26T13:11:47;32.20;90.60
16995;DHT22;8614;48.522;9.206;2023-06-26T13:14:15;32.10;90.90
16995;DHT22;8614;48.522;9.206;2023-06-26T13:16:42;32.10;90.60
16995;DHT22;8614;48.522;9.206;2023-06-26T13:19:09;32.00;91.50
16995;DHT22;8614;48.522;9.206;2023-06-26T13:21:36;31.90;92.00
16995;DHT22;8614;48.522;9.206;2023-06-26T13:24:03;31.90;91.30
16995;DHT22;8614;48.522;9.206;2023-06-26T13:26:31;31.90;91.40
16995;DHT22;8614;48.522;9.206;2023-06-26T13:28:58;31.80;91.80
16995;DHT22;8614;48.522;9.206;2023-06-26T13:31:26;31.80;92.10
16995;DHT22;8614;48.522;9.206;2023-06-26T13:33:53;31.70;91.90
16995;DHT22;8614;48.522;9.206;2023-06-26T13:36:20;31.60;91.30
16995;DHT22;8614;48.522;9.206;2023-06-26T13:38:47;31.50;91.80
16995;DHT22;8614;48.522;9.206;2023-06-26T13:41:21;31.30;91.90
16995;DHT22;8614;48.522;9.206;2023-06-26T13:43:47;31.30;92.00
16995;DHT22;8614;48.522;9.206;2023-06-26T13:46:15;31.30;92.20
16995;DHT22;8614;48.522;9.206;2023-06-26T13:48:43;31.20;92.20
16995;DHT22;8614;48.522;9.206;2023-06-26T13:51:10;31.10;92.50
16995;DHT22;8614;48.522;9.206;2023-06-26T13:53:37;31.10;92.70
16995;DHT22;8614;48.522;9.206;2023-06-26T13:56:04;30.90;92.70
16995;DHT22;8614;48.522;9.206;2023-06-26T13:58:31;30.70;92.90
16995;DHT22;8614;48.522;9.206;2023-06-26T14:01:00;30.70;93.60
16995;DHT22;8614;48.522;9.206;2023-06-26T14:03:27;30.70;93.10
16995;DHT22;8614;48.522;9.206;2023-06-26T14:05:55;30.60;93.10
16995;DHT22;8614;48.522;9.206;2023-06-26T14:08:22;30.70;93.40
16995;DHT22;8614;48.522;9.206;2023-06-26T14:10:49;30.80;93.10
16995;DHT22;8614;48.522;9.206;2023-06-26T14:13:16;30.80;92.70
16995;DHT22;8614;48.522;9.206;2023-06-26T14:15:42;30.80;92.90
16995;DHT22;8614;48.522;9.206;2023-06-26T14:18:09;30.80;92.20
16995;DHT22;8614;48.522;9.206;2023-06-26T14:20:36;30.80;93.00
16995;DHT22;8614;48.522;9.206;2023-06-26T14:23:07;30.70;92.60
16995;DHT22;8614;48.522;9.206;2023-06-26T14:25:34;30.70;92.10
16995;DHT22;8614;48.522;9.206;2023-06-26T14:28:01;30.70;91.80
16995;DHT22;8614;48.522;9.206;2023-06-26T14:30:28;30.50;91.90
16995;DHT22;8614;48.522;9.206;2023-06-26T14:32:55;30.40;91.90
16995;DHT22;8614;48.522;9.206;2023-06-26T14:35:21;30.30;92.20
16995;DHT22;8614;48.522;9.206;2023-06-26T14:37:48;30.20;92.60
16995;DHT22;8614;48.522;9.206;2023-06-26T14:40:17;30.20;93.20
16995;DHT22;8614;48.522;9.206;2023-06-26T14:42:43;30.30;92.40
16995;DHT22;8614;48.522;9.206;2023-06-26T14:45:11;30.30;91.50
16995;DHT22;8614;48.522;9.206;2023-06-26T14:47:37;30.30;92.20
16995;DHT22;8614;48.522;9.206;2023-06-26T14:50:05;30.30;91.70
16995;DHT22;8614;48.522;9.206;2023-06-26T14:52:33;30.20;91.60
16995;DHT22;8614;48.522;9.206;2023-06-26T14:54:59;30.10;91.50
16995;DHT22;8614;48.522;9.206;2023-06-26T14:57:28;30.00;91.40
16995;DHT22;8614;48.522;9.206;2023-06-26T14:59:54;29.90;91.50
16995;DHT22;8614;48.522;9.206;2023-06-26T15:02:21;29.90;91.80
16995;DHT22;8614;48.522;9.206;2023-06-26T15:04:48;29.70;91.30
16995;DHT22;8614;48.522;9.206;2023-06-26T15:07:15;29.70;92.20
16995;DHT22;8614;48.522;9.206;2023-06-26T15:09:41;29.50;91.30
16995;DHT22;8614;48.522;9.206;2023-06-26T15:12:08;29.40;91.90
16995;DHT22;8614;48.522;9.206;2023-06-26T15:14:36;29.40;92.00
16995;DHT22;8614;48.522;9.206;2023-06-26T15:17:04;29.40;91.90
16995;DHT22;8614;48.522;9.206;2023-06-26T15:19:31;29.40;91.60
16995;DHT22;8614;48.522;9.206;2023-06-26T15:21:57;29.30;92.00
16995;DHT22;8614;48.522;9.206;2023-06-26T15:24:24;29.30;91.40
16995;DHT22;8614;48.522;9.206;2023-06-26T15:26:51;29.30;91.40
16995;DHT22;8614;48.522;9.206;2023-06-26T15:29:18;29.30;91.80
16995;DHT22;8614;48.522;9.206;2023-06-26T15:31:46;29.30;91.40
16995;DHT22;8614;48.522;9.206;2023-06-26T15:34:13;29.30;91.50
16995;DHT22;8614;48.522;9.206;2023-06-26T15:36:39;29.30;91.40
16995;DHT22;8614;48.522;9.206;2023-06-26T15:39:06;29.20;92.20
16995;DHT22;8614;48.522;9.206;2023-06-26T15:41:33;29.10;92.00
16995;DHT22;8614;48.522;9.206;2023-06-26T15:44:02;29.10;92.40
16995;DHT22;8614;48.522;9.206;2023-06-26T15:46:29;29.00;92.50
16995;DHT22;8614;48.522;9.206;2023-06-26T15:48:58;29.00;92.40
16995;DHT22;8614;48.522;9.206;2023-06-26T15:51:24;28.90;92.20